WetterOnline ( https://www.wetteronline.de )

Wetter aktuell Skive

Aktuelles Wetter: Karup (53m)

6-stündlich | Neueste Meldungen
Ortszeit Temperatur Wetter
Fr, 23.10. 8:00 9.3° C bedeckt
Fr, 23.10. 2:00 10.5° C bedeckt
Do, 22.10. 20:00 11.2° C wolkenlos
Do, 22.10. 14:00 13.4° C leichte Schauer
Do, 22.10. 8:00 12.9° C bedeckt
Do, 22.10. 2:00 13.4° C leichter Regen
Mi, 21.10. 20:00 11.7° C leichter Regen
Mi, 21.10. 14:00 12.8° C leichte Schauer
Ortszeit Temperatur Wetter
Fr, 23.10. 8:00 9.3° C bedeckt
Fr, 23.10. 7:50 9° C bewölkt
Fr, 23.10. 7:20 9° C bewölkt
Fr, 23.10. 7:00 9.4° C bedeckt
Fr, 23.10. 6:50 9° C bewölkt
Fr, 23.10. 6:20 9° C bewölkt
Fr, 23.10. 6:00 9.5° C bewölkt
Fr, 23.10. 5:20 10° C bewölkt
Fr, 23.10. 5:00 9.9° C bewölkt
Fr, 23.10. 4:20 10° C bewölkt
Ortszeit Relative Feuchte Sichtweite
Fr, 23.10. 8:00 95% 35 km
Fr, 23.10. 2:00 93% 30 km
Do, 22.10. 20:00 83% 26 km
Do, 22.10. 14:00 88% 35 km
Do, 22.10. 8:00 95% 25 km
Do, 22.10. 2:00 96% 7 km
Mi, 21.10. 20:00 98% 7 km
Mi, 21.10. 14:00 97% 7 km
Ortszeit Relative Feuchte Sichtweite
Fr, 23.10. 8:00 95% 35 km
Fr, 23.10. 7:50 100% >10 km
Fr, 23.10. 7:20 100% >10 km
Fr, 23.10. 7:00 94% 30 km
Fr, 23.10. 6:50 100% >10 km
Fr, 23.10. 6:20 100% >10 km
Fr, 23.10. 6:00 93% 27 km
Fr, 23.10. 5:20 93% >10 km
Fr, 23.10. 5:00 93% 30 km
Fr, 23.10. 4:20 93% >10 km
Ortszeit Niederschlagsmenge Niederschlagsart
Fr, 23.10. 8:00 2 l/m2 in 12 Std. -
Fr, 23.10. 2:00 0.4 l/m2 in 3 Std. -
Do, 22.10. 20:00 0.5 l/m2 in 3 Std. Schauer
Do, 22.10. 14:00 2 l/m2 in 6 Std. Schauer
Do, 22.10. 8:00 9 l/m2 in 12 Std. -
Do, 22.10. 2:00 1 l/m2 in 3 Std. Regen
Mi, 21.10. 20:00 6 l/m2 in 3 Std. Regen
Mi, 21.10. 14:00 0.1 l/m2 in 3 Std. Schauer
Ortszeit Niederschlagsmenge Niederschlagsart
Fr, 23.10. 8:00 keine Meldung -
Fr, 23.10. 7:50 keine Meldung -
Fr, 23.10. 7:20 keine Meldung -
Fr, 23.10. 7:00 0.0 l/m2 in 1 Std. -
Fr, 23.10. 6:50 keine Meldung -
Fr, 23.10. 6:20 keine Meldung -
Fr, 23.10. 6:00 0.0 l/m2 in 1 Std. -
Fr, 23.10. 5:20 keine Meldung -
Fr, 23.10. 5:00 keine Meldung -
Fr, 23.10. 4:20 keine Meldung -
Ortszeit Stärke Spitze Richtung
km/h Bft. km/h Grad Sektor
Fr, 23.10. 8:00 9 2 - 260° W
Fr, 23.10. 2:00 17 3 - 250° W
Do, 22.10. 20:00 24 4 - 220° SW
Do, 22.10. 14:00 31 5 56 220° SW
Do, 22.10. 8:00 17 3 - 220° SW
Do, 22.10. 2:00 26 4 - 260° W
Mi, 21.10. 20:00 13 3 - 140° SO
Mi, 21.10. 14:00 11 2 - 160° S
Ortszeit Stärke Spitze Richtung
km/h Bft. km/h Grad Sektor
Fr, 23.10. 8:00 9 2 - 260° W
Fr, 23.10. 7:50 9 2 - 250° W
Fr, 23.10. 7:20 13 3 - 230° SW
Fr, 23.10. 7:00 9 2 - 230° SW
Fr, 23.10. 6:50 7 2 - 230° SW
Fr, 23.10. 6:20 11 2 - 240° SW
Fr, 23.10. 6:00 9 2 - 240° SW
Fr, 23.10. 5:20 11 2 - 250° W
Fr, 23.10. 5:00 11 2 - 240° SW
Fr, 23.10. 4:20 11 2 - 240° SW
Ortszeit Untergrenze Bedeckung Gattung
total tief tief mittel hoch
Fr, 23.10. 8:00 870 m 8/8 8/8 - - -
Fr, 23.10. 2:00 390 m 8/8 8/8 - - -
Do, 22.10. 20:00 - 0/8 0/8 - - -
Do, 22.10. 14:00 360 m 8/8 8/8 - - -
Do, 22.10. 8:00 270 m 8/8 8/8 - - -
Do, 22.10. 2:00 150 m 8/8 8/8 - - -
Mi, 21.10. 20:00 150 m 8/8 8/8 - - -
Mi, 21.10. 14:00 120 m 8/8 8/8 - - -
Ortszeit Bedeckungsgrad in Achtel und Wolkenuntergrenze
Fr, 23.10. 8:00 8(870m)
Fr, 23.10. 7:50 5-7(840m)
Fr, 23.10. 7:20 5-7(510m)
Fr, 23.10. 7:00 8(630m)
Fr, 23.10. 6:50 5-7(630m)
Fr, 23.10. 6:20 5-7(690m)
Fr, 23.10. 6:00 7(540m)
Fr, 23.10. 5:20 3-4(540m) 5-7(660m)
Fr, 23.10. 5:00 7(540m)
Fr, 23.10. 4:20 5-7(870m)
Ortszeit Luftdruck NN (hPa) Tendenz (hPa in 3 Std.)
Fr, 23.10. 8:00 1006 + 0,6
Fr, 23.10. 2:00 1003 + 0,7
Do, 22.10. 20:00 1001 - 0,4
Do, 22.10. 14:00 1002 - 0,1
Do, 22.10. 8:00 1001 + 1,4
Do, 22.10. 2:00 992 + 2,0
Mi, 21.10. 20:00 995 - 3,0
Mi, 21.10. 14:00 1001 - 1,9
Ortszeit Luftdruck NN (hPa) Tendenz (hPa in 3 Std.)
Fr, 23.10. 8:00 1006 + 0,6
Fr, 23.10. 7:50 1005 keine Meldung
Fr, 23.10. 7:20 1005 keine Meldung
Fr, 23.10. 7:00 1005 + 0,7
Fr, 23.10. 6:50 1005 keine Meldung
Fr, 23.10. 6:20 1004 keine Meldung
Fr, 23.10. 6:00 1005 + 0,9
Fr, 23.10. 5:20 1004 keine Meldung
Fr, 23.10. 5:00 1005 + 1,2
Fr, 23.10. 4:20 1004 keine Meldung
Ortszeit Schneehöhe (cm)
Fr, 23.10. 8:00 -
Fr, 23.10. 2:00 -
Do, 22.10. 20:00 -
Do, 22.10. 14:00 -
Do, 22.10. 8:00 -
Do, 22.10. 2:00 -
Mi, 21.10. 20:00 -
Mi, 21.10. 14:00 -
Ortszeit Schneehöhe (cm)
Fr, 23.10. 8:00 -
Fr, 23.10. 7:50 -
Fr, 23.10. 7:20 -
Fr, 23.10. 7:00 -
Fr, 23.10. 6:50 -
Fr, 23.10. 6:20 -
Fr, 23.10. 6:00 -
Fr, 23.10. 5:20 -
Fr, 23.10. 5:00 -
Fr, 23.10. 4:20 -
Link zu dieser Seite / Seite empfehlen

Das Wetter in ...